NCAR-RAP Real-Time Weather Data

Output produced by METARs form (08 May 2021  17:21 UTC)
found at http://weather.rap.ucar.edu/surface/
 
KDCA 081652Z 31013KT 10SM FEW029 SCT047 BKN060 15/03 A2993 RMK AO2 SLP135 T01500028
KDCA 081552Z 35010G19KT 10SM FEW024 BKN036 BKN085 14/06 A2995 RMK AO2 SLP141 T01390061
KDCA 081452Z 33009KT 10SM SCT024 BKN060 BKN080 13/07 A2995 RMK AO2 SLP141 60000 T01280067 51014
KDCA 081352Z 32011KT 10SM BKN046 BKN055 11/06 A2994 RMK AO2 SLP137 T01060061
KDCA 081252Z 33005KT 10SM BKN043 OVC050 11/06 A2993 RMK AO2 RAE07 SLP134 BINOVC P0000 T01060056
KDCA 081152Z 08004KT 10SM -RA FEW035 OVC047 09/07 A2991 RMK AO2 SLP126 P0003 60003 70008 T00940072 10094 20067 53005
KDCA 081129Z 28004KT 7SM -RA FEW035 OVC047 09/07 A2991 RMK AO2 LTG DSNT S P0002 T00890067
KDCA 081115Z 00000KT 5SM -RA SCT035 OVC050 09/06 A2991 RMK AO2 P0001 T00890061
KDCA 081052Z 25004KT 10SM -RA BKN060 BKN090 BKN140 OVC250 08/06 A2990 RMK AO2 RAB26 SLP125 P0000 T00830056
KDCA 080952Z 21003KT 10SM BKN140 BKN250 08/05 A2989 RMK AO2 SLP121 T00780050
KDCA 080852Z 00000KT 10SM FEW150 BKN250 07/05 A2989 RMK AO2 SLP121 T00720050 55004
KDCA 080752Z 21003KT 10SM FEW150 BKN250 08/04 A2989 RMK AO2 SLP120 T00780044
KDCA 080652Z 26006KT 10SM BKN250 08/04 A2990 RMK AO2 SLP125 T00830044
KDCA 080552Z 28005KT 10SM BKN250 08/04 A2990 RMK AO2 SLP125 60000 T00830044 10122 20083 56007
KDCA 080452Z 28006KT 10SM SCT250 09/05 A2991 RMK AO2 SLP127 T00940050 401830094
KDCA 080352Z 33005KT 10SM FEW140 FEW250 09/05 A2992 RMK AO2 SLP130 T00940050
KDCA 080252Z 32008KT 10SM FEW140 SCT160 BKN200 11/06 A2992 RMK AO2 SLP133 60000 T01060056 51012
KDCA 080152Z 31007KT 10SM FEW050 SCT070 BKN120 11/07 A2992 RMK AO2 SLP132 T01110067
KDCA 080052Z 32009KT 10SM SCT048 BKN065 BKN110 12/08 A2990 RMK AO2 RAE42 SLP124 P0000 T01170078
KDCA 072352Z 30006KT 10SM -RA SCT060 BKN070 OVC110 12/09 A2989 RMK AO2 SLP121 P0001 60005 T01220089 10183 20122 51009
KDCA 072252Z 34005KT 10SM -RA FEW016 BKN055 OVC070 12/09 A2988 RMK AO2 SLP119 P0001 T01220089
KDCA 072152Z 34005KT 8SM -RA SCT027 OVC055 12/08 A2987 RMK AO2 SLP115 P0003 T01220083
KDCA 072052Z 36007KT 10SM -RA SCT040 OVC055 13/08 A2986 RMK AO2 LTG DSNT E AND SE SLP112 P0000 60000 T01330083 53005
KDCA 071952Z 28011KT 10SM -RA SCT060 OVC075 15/07 A2984 RMK AO2 PK WND 26027/1909 RAB07 SLP105 P0000 T01500072
KDCA 071852Z 22008G18KT 10SM VCTS BKN050 BKN080 OVC110 17/06 A2984 RMK AO2 SLP104 T01720056
KDCA 071828Z 22013G17KT 10SM VCTS SCT049 BKN095 18/07 A2984 RMK AO2 T01830067
KDCA 071752Z 24009KT 220V280 10SM SCT050 BKN090 OVC120 18/07 A2985 RMK AO2 SLP107 T01780067 10183 20122 58016
KDCA 071652Z 21008KT 10SM SCT050 OVC085 17/07 A2987 RMK AO2 SLP113 T01720067
KDCA 071552Z 19007KT 10SM SCT045 SCT075 BKN130 OVC250 17/07 A2989 RMK AO2 SLP120 T01720067
KDCA 071452Z 21006KT 10SM FEW035 SCT140 OVC250 16/06 A2989 RMK AO2 SLP123 T01610061 55006
KDCA 071352Z 15005KT 10SM FEW080 OVC250 16/06 A2989 RMK AO2 SLP122 T01560056
KDCA 071252Z 11004KT 10SM FEW070 FEW160 OVC250 14/08 A2990 RMK AO2 SLP125 T01390078
KDCA 071152Z 04003KT 10SM FEW140 BKN250 12/09 A2991 RMK AO2 SLP129 T01220089 10122 20094 53000
KDCA 071052Z 00000KT 10SM FEW150 SCT250 11/06 A2991 RMK AO2 SLP129 T01060061
KDCA 070952Z 00000KT 10SM FEW150 SCT250 10/06 A2991 RMK AO2 SLP127 T01000061
KDCA 070852Z 24003KT 10SM FEW140 BKN250 10/06 A2991 RMK AO2 SLP128 T01000061 56014
KDCA 070752Z 00000KT 10SM BKN250 10/06 A2992 RMK AO2 SLP131 T01000061
KDCA 070652Z 00000KT 10SM FEW140 OVC250 12/07 A2994 RMK AO2 SLP137 T01170067
KDCA 070552Z 00000KT 10SM FEW140 OVC250 12/06 A2995 RMK AO2 SLP142 T01170056 10167 20111 58010
KDCA 070452Z 21003KT 10SM FEW160 OVC250 12/07 A2996 RMK AO2 SLP146 T01220067 401890094
KDCA 070352Z 23003KT 10SM BKN250 13/06 A2997 RMK AO2 SLP148 T01330056
KDCA 070252Z 00000KT 10SM BKN250 14/04 A2998 RMK AO2 SLP152 T01390044 51002
KDCA 070152Z 19003KT 10SM BKN250 15/05 A2998 RMK AO2 SLP151 T01500050
KDCA 070052Z 00000KT 10SM BKN250 17/01 A2998 RMK AO2 SLP152 T01670011
KDCA 062352Z 25003KT 10SM BKN250 17/02 A2997 RMK AO2 SLP149 T01670017 10189 20161 53003
KDCA 062252Z 29007KT 10SM FEW065 BKN250 18/02 A2996 RMK AO2 SLP144 T01780022
KDCA 062152Z 32010KT 10SM FEW065 BKN250 18/03 A2996 RMK AO2 SLP145 T01780028
KDCA 062052Z 31006KT 10SM FEW065 BKN250 18/04 A2996 RMK AO2 SLP146 T01780039 56018
KDCA 061952Z 33006KT 10SM FEW065 BKN250 18/04 A2997 RMK AO2 SLP149 T01780039
KDCA 061852Z VRB06KT 10SM FEW065 BKN250 18/04 A2999 RMK AO2 SLP155 T01830044
KDCA 061752Z 25007KT 10SM FEW060 BKN250 17/03 A3002 RMK AO2 SLP165 T01720033 10172 20117 58021